ETHF

Fritzlar Air Base

Airport
ICAO code
ETHF
Summary
ICAO Region
EUR
ICAO Territory
Location

Fritzlar, Hesse,

Coordinates
51° 6' 51" N , 9° 17' 12" E
Metar
Observation
ETHF 032020Z 31015G25KT 9999 SCT032 SCT140 07/01 Q1025 BLU+
Station
Fritzlar
Date/Time
2023-02-03 20:20:00
Wind direction
310°
Wind speed
15 kts
Lowest cloud amount
scattered clouds
Temperature
7°C
Dew point
1°C
Humidity
65%
QNH
1025 hPa
Weather condition
n/a

Description

Fritzlar Air Base is a military air field of the German Army Aviation Corps. It is located near the town of Fritzlar in northern Hesse, Germany.

Runways

Designator Length Width Surface Rops
12/30 1040 30 ASP No/No

Airport map

Aerial View

SKYbrary Partners:

Safety knowledge contributed by: